sensor_id;sensor_type;location;lat;lon;timestamp;P1;durP1;ratioP1;P2;durP2;ratioP2
24613;SDS011;12760;46.296;25.290;2022-09-28T00:02:02;0.57;;;0.57;;
24613;SDS011;12760;46.296;25.290;2022-09-28T00:04:29;0.40;;;0.40;;
24613;SDS011;12760;46.296;25.290;2022-09-28T00:06:55;0.80;;;0.80;;
24613;SDS011;12760;46.296;25.290;2022-09-28T00:09:20;3.60;;;1.80;;
24613;SDS011;12760;46.296;25.290;2022-09-28T00:11:46;1.33;;;1.17;;
24613;SDS011;12760;46.296;25.290;2022-09-28T00:14:12;0.70;;;0.70;;
24613;SDS011;12760;46.296;25.290;2022-09-28T00:16:39;1.27;;;1.17;;
24613;SDS011;12760;46.296;25.290;2022-09-28T00:19:07;0.57;;;0.57;;
24613;SDS011;12760;46.296;25.290;2022-09-28T00:21:35;1.38;;;1.13;;
24613;SDS011;12760;46.296;25.290;2022-09-28T00:24:03;0.73;;;0.73;;
24613;SDS011;12760;46.296;25.290;2022-09-28T00:26:52;4.32;;;3.38;;
24613;SDS011;12760;46.296;25.290;2022-09-28T00:29:20;2.33;;;2.22;;
24613;SDS011;12760;46.296;25.290;2022-09-28T00:31:58;4.10;;;1.73;;
24613;SDS011;12760;46.296;25.290;2022-09-28T00:34:30;2.42;;;2.33;;
24613;SDS011;12760;46.296;25.290;2022-09-28T00:37:01;3.78;;;1.83;;
24613;SDS011;12760;46.296;25.290;2022-09-28T00:39:27;2.38;;;1.95;;
24613;SDS011;12760;46.296;25.290;2022-09-28T00:41:55;1.42;;;1.38;;
24613;SDS011;12760;46.296;25.290;2022-09-28T00:49:30;0.93;;;0.93;;
24613;SDS011;12760;46.296;25.290;2022-09-28T00:52:00;2.92;;;2.65;;
24613;SDS011;12760;46.296;25.290;2022-09-28T00:54:28;0.90;;;0.90;;
24613;SDS011;12760;46.296;25.290;2022-09-28T00:56:54;0.55;;;0.55;;
24613;SDS011;12760;46.296;25.290;2022-09-28T00:59:20;1.00;;;1.00;;
24613;SDS011;12760;46.296;25.290;2022-09-28T01:01:48;1.83;;;1.58;;
24613;SDS011;12760;46.296;25.290;2022-09-28T01:04:15;1.45;;;1.17;;
24613;SDS011;12760;46.296;25.290;2022-09-28T01:06:41;0.98;;;0.98;;
24613;SDS011;12760;46.296;25.290;2022-09-28T01:09:09;1.60;;;1.55;;
24613;SDS011;12760;46.296;25.290;2022-09-28T01:11:38;0.63;;;0.63;;
24613;SDS011;12760;46.296;25.290;2022-09-28T01:14:05;0.50;;;0.50;;
24613;SDS011;12760;46.296;25.290;2022-09-28T01:27:51;0.68;;;0.68;;
24613;SDS011;12760;46.296;25.290;2022-09-28T01:30:21;0.95;;;0.95;;
24613;SDS011;12760;46.296;25.290;2022-09-28T01:38:43;0.50;;;0.50;;
24613;SDS011;12760;46.296;25.290;2022-09-28T01:41:12;0.60;;;0.60;;
24613;SDS011;12760;46.296;25.290;2022-09-28T01:43:42;0.88;;;0.88;;
24613;SDS011;12760;46.296;25.290;2022-09-28T01:46:16;0.60;;;0.60;;
24613;SDS011;12760;46.296;25.290;2022-09-28T01:49:00;0.60;;;0.60;;
24613;SDS011;12760;46.296;25.290;2022-09-28T01:51:32;0.68;;;0.68;;
24613;SDS011;12760;46.296;25.290;2022-09-28T01:54:12;0.85;;;0.85;;
24613;SDS011;12760;46.296;25.290;2022-09-28T01:56:46;0.70;;;0.70;;
24613;SDS011;12760;46.296;25.290;2022-09-28T01:59:16;0.47;;;0.47;;
24613;SDS011;12760;46.296;25.290;2022-09-28T02:04:19;0.60;;;0.60;;
24613;SDS011;12760;46.296;25.290;2022-09-28T02:06:52;0.80;;;0.80;;
24613;SDS011;12760;46.296;25.290;2022-09-28T02:09:45;0.55;;;0.55;;
24613;SDS011;12760;46.296;25.290;2022-09-28T02:12:17;1.00;;;1.00;;
24613;SDS011;12760;46.296;25.290;2022-09-28T02:14:51;0.50;;;0.50;;
24613;SDS011;12760;46.296;25.290;2022-09-28T02:17:23;1.40;;;1.35;;
24613;SDS011;12760;46.296;25.290;2022-09-28T02:19:49;9.65;;;4.22;;
24613;SDS011;12760;46.296;25.290;2022-09-28T02:22:18;0.95;;;0.95;;
24613;SDS011;12760;46.296;25.290;2022-09-28T02:24:53;1.73;;;1.65;;
24613;SDS011;12760;46.296;25.290;2022-09-28T02:29:49;0.80;;;0.80;;
24613;SDS011;12760;46.296;25.290;2022-09-28T02:32:15;0.80;;;0.80;;
24613;SDS011;12760;46.296;25.290;2022-09-28T02:34:42;0.60;;;0.60;;
24613;SDS011;12760;46.296;25.290;2022-09-28T02:37:08;0.90;;;0.90;;
24613;SDS011;12760;46.296;25.290;2022-09-28T02:39:34;1.42;;;1.33;;
24613;SDS011;12760;46.296;25.290;2022-09-28T02:42:34;0.50;;;0.50;;
24613;SDS011;12760;46.296;25.290;2022-09-28T02:59:23;0.70;;;0.70;;
24613;SDS011;12760;46.296;25.290;2022-09-28T03:02:12;0.70;;;0.70;;
24613;SDS011;12760;46.296;25.290;2022-09-28T03:12:54;2.67;;;1.58;;
24613;SDS011;12760;46.296;25.290;2022-09-28T03:15:23;0.80;;;0.80;;
24613;SDS011;12760;46.296;25.290;2022-09-28T03:17:51;0.60;;;0.60;;
24613;SDS011;12760;46.296;25.290;2022-09-28T03:20:17;0.70;;;0.70;;
24613;SDS011;12760;46.296;25.290;2022-09-28T03:22:43;0.75;;;0.75;;
24613;SDS011;12760;46.296;25.290;2022-09-28T03:25:09;0.95;;;0.93;;
24613;SDS011;12760;46.296;25.290;2022-09-28T03:27:34;1.40;;;1.35;;
24613;SDS011;12760;46.296;25.290;2022-09-28T03:30:00;1.58;;;1.58;;
24613;SDS011;12760;46.296;25.290;2022-09-28T03:32:26;1.00;;;1.00;;
24613;SDS011;12760;46.296;25.290;2022-09-28T03:34:52;1.20;;;1.20;;
24613;SDS011;12760;46.296;25.290;2022-09-28T03:37:18;3.13;;;2.15;;
24613;SDS011;12760;46.296;25.290;2022-09-28T03:39:44;0.75;;;0.75;;
24613;SDS011;12760;46.296;25.290;2022-09-28T03:42:09;1.10;;;1.00;;
24613;SDS011;12760;46.296;25.290;2022-09-28T03:44:35;2.65;;;2.45;;
24613;SDS011;12760;46.296;25.290;2022-09-28T03:47:00;1.17;;;1.17;;
24613;SDS011;12760;46.296;25.290;2022-09-28T03:49:26;1.40;;;1.30;;
24613;SDS011;12760;46.296;25.290;2022-09-28T03:51:52;4.72;;;1.40;;
24613;SDS011;12760;46.296;25.290;2022-09-28T03:54:17;1.48;;;1.48;;
24613;SDS011;12760;46.296;25.290;2022-09-28T03:56:44;2.00;;;1.80;;
24613;SDS011;12760;46.296;25.290;2022-09-28T03:59:09;1.42;;;1.33;;
24613;SDS011;12760;46.296;25.290;2022-09-28T04:01:35;0.70;;;0.70;;
24613;SDS011;12760;46.296;25.290;2022-09-28T04:04:01;1.25;;;1.25;;
24613;SDS011;12760;46.296;25.290;2022-09-28T04:06:26;1.40;;;1.40;;
24613;SDS011;12760;46.296;25.290;2022-09-28T04:08:52;1.10;;;1.10;;
24613;SDS011;12760;46.296;25.290;2022-09-28T04:11:18;1.50;;;1.40;;
24613;SDS011;12760;46.296;25.290;2022-09-28T04:13:46;2.25;;;1.90;;
24613;SDS011;12760;46.296;25.290;2022-09-28T04:16:15;1.10;;;1.10;;
24613;SDS011;12760;46.296;25.290;2022-09-28T04:18:42;1.05;;;1.05;;
24613;SDS011;12760;46.296;25.290;2022-09-28T04:21:11;1.30;;;1.20;;
24613;SDS011;12760;46.296;25.290;2022-09-28T04:23:41;1.20;;;1.20;;
24613;SDS011;12760;46.296;25.290;2022-09-28T04:26:12;1.55;;;1.48;;
24613;SDS011;12760;46.296;25.290;2022-09-28T04:28:42;1.73;;;1.73;;
24613;SDS011;12760;46.296;25.290;2022-09-28T04:31:27;0.90;;;0.90;;
24613;SDS011;12760;46.296;25.290;2022-09-28T04:33:55;0.95;;;0.95;;
24613;SDS011;12760;46.296;25.290;2022-09-28T04:36:21;1.88;;;1.77;;
24613;SDS011;12760;46.296;25.290;2022-09-28T04:38:49;1.90;;;1.80;;
24613;SDS011;12760;46.296;25.290;2022-09-28T04:41:16;1.10;;;1.10;;
24613;SDS011;12760;46.296;25.290;2022-09-28T04:43:42;1.05;;;1.05;;
24613;SDS011;12760;46.296;25.290;2022-09-28T04:46:08;2.63;;;2.42;;
24613;SDS011;12760;46.296;25.290;2022-09-28T04:48:36;1.17;;;1.17;;
24613;SDS011;12760;46.296;25.290;2022-09-28T04:51:02;1.42;;;1.00;;
24613;SDS011;12760;46.296;25.290;2022-09-28T04:53:28;1.08;;;1.08;;
24613;SDS011;12760;46.296;25.290;2022-09-28T04:56:04;1.13;;;1.13;;
24613;SDS011;12760;46.296;25.290;2022-09-28T04:58:34;1.27;;;1.27;;
24613;SDS011;12760;46.296;25.290;2022-09-28T05:01:05;1.52;;;1.52;;
24613;SDS011;12760;46.296;25.290;2022-09-28T05:03:33;1.00;;;1.00;;
24613;SDS011;12760;46.296;25.290;2022-09-28T05:05:59;0.88;;;0.88;;
24613;SDS011;12760;46.296;25.290;2022-09-28T05:08:25;0.88;;;0.88;;
24613;SDS011;12760;46.296;25.290;2022-09-28T05:10:58;2.45;;;2.30;;
24613;SDS011;12760;46.296;25.290;2022-09-28T05:13:26;3.88;;;3.58;;
24613;SDS011;12760;46.296;25.290;2022-09-28T05:15:53;3.22;;;2.80;;
24613;SDS011;12760;46.296;25.290;2022-09-28T05:18:20;2.90;;;2.70;;
24613;SDS011;12760;46.296;25.290;2022-09-28T05:20:45;2.00;;;1.98;;
24613;SDS011;12760;46.296;25.290;2022-09-28T05:23:11;4.70;;;4.40;;
24613;SDS011;12760;46.296;25.290;2022-09-28T05:25:38;4.20;;;3.90;;
24613;SDS011;12760;46.296;25.290;2022-09-28T05:28:04;14.88;;;7.65;;
24613;SDS011;12760;46.296;25.290;2022-09-28T05:30:30;4.55;;;4.25;;
24613;SDS011;12760;46.296;25.290;2022-09-28T05:32:56;8.48;;;6.18;;
24613;SDS011;12760;46.296;25.290;2022-09-28T05:35:22;8.20;;;7.72;;
24613;SDS011;12760;46.296;25.290;2022-09-28T05:37:48;7.20;;;5.50;;
24613;SDS011;12760;46.296;25.290;2022-09-28T05:40:13;11.57;;;10.50;;
24613;SDS011;12760;46.296;25.290;2022-09-28T05:42:40;6.53;;;6.07;;
24613;SDS011;12760;46.296;25.290;2022-09-28T05:45:06;8.68;;;8.00;;
24613;SDS011;12760;46.296;25.290;2022-09-28T05:47:37;7.95;;;7.38;;
24613;SDS011;12760;46.296;25.290;2022-09-28T05:50:04;8.82;;;8.05;;
24613;SDS011;12760;46.296;25.290;2022-09-28T05:52:31;7.13;;;6.75;;
24613;SDS011;12760;46.296;25.290;2022-09-28T05:54:57;13.75;;;7.65;;
24613;SDS011;12760;46.296;25.290;2022-09-28T05:57:22;9.40;;;8.77;;
24613;SDS011;12760;46.296;25.290;2022-09-28T05:59:48;7.85;;;7.15;;
24613;SDS011;12760;46.296;25.290;2022-09-28T06:02:14;5.93;;;5.43;;
24613;SDS011;12760;46.296;25.290;2022-09-28T06:04:39;6.85;;;5.68;;
24613;SDS011;12760;46.296;25.290;2022-09-28T06:07:05;6.70;;;6.18;;
24613;SDS011;12760;46.296;25.290;2022-09-28T06:09:31;2.70;;;2.60;;
24613;SDS011;12760;46.296;25.290;2022-09-28T06:11:57;4.93;;;4.53;;
24613;SDS011;12760;46.296;25.290;2022-09-28T06:14:23;3.40;;;3.20;;
24613;SDS011;12760;46.296;25.290;2022-09-28T06:16:50;1.80;;;1.67;;
24613;SDS011;12760;46.296;25.290;2022-09-28T06:19:16;3.22;;;2.92;;
24613;SDS011;12760;46.296;25.290;2022-09-28T06:21:42;16.48;;;2.90;;
24613;SDS011;12760;46.296;25.290;2022-09-28T06:24:08;1.35;;;1.27;;
24613;SDS011;12760;46.296;25.290;2022-09-28T06:26:34;1.85;;;1.75;;
24613;SDS011;12760;46.296;25.290;2022-09-28T06:28:59;1.83;;;1.73;;
24613;SDS011;12760;46.296;25.290;2022-09-28T06:31:25;3.53;;;1.80;;
24613;SDS011;12760;46.296;25.290;2022-09-28T06:33:54;0.77;;;0.77;;
24613;SDS011;12760;46.296;25.290;2022-09-28T06:36:20;0.90;;;0.90;;
24613;SDS011;12760;46.296;25.290;2022-09-28T06:38:46;1.33;;;1.33;;
24613;SDS011;12760;46.296;25.290;2022-09-28T06:41:12;2.72;;;2.55;;
24613;SDS011;12760;46.296;25.290;2022-09-28T06:43:38;1.50;;;1.42;;
24613;SDS011;12760;46.296;25.290;2022-09-28T06:46:04;1.00;;;1.00;;
24613;SDS011;12760;46.296;25.290;2022-09-28T06:48:31;1.08;;;1.08;;
24613;SDS011;12760;46.296;25.290;2022-09-28T06:50:58;1.10;;;1.02;;
24613;SDS011;12760;46.296;25.290;2022-09-28T06:53:24;1.48;;;1.48;;
24613;SDS011;12760;46.296;25.290;2022-09-28T06:55:52;7.78;;;2.78;;
24613;SDS011;12760;46.296;25.290;2022-09-28T06:58:18;1.67;;;1.60;;
24613;SDS011;12760;46.296;25.290;2022-09-28T07:00:45;0.70;;;0.70;;
24613;SDS011;12760;46.296;25.290;2022-09-28T07:03:13;1.38;;;1.33;;
24613;SDS011;12760;46.296;25.290;2022-09-28T07:05:45;2.80;;;2.60;;
24613;SDS011;12760;46.296;25.290;2022-09-28T07:08:13;4.00;;;3.45;;
24613;SDS011;12760;46.296;25.290;2022-09-28T07:10:40;0.88;;;0.88;;
24613;SDS011;12760;46.296;25.290;2022-09-28T07:13:07;3.20;;;0.80;;
24613;SDS011;12760;46.296;25.290;2022-09-28T07:15:34;7.65;;;3.25;;
24613;SDS011;12760;46.296;25.290;2022-09-28T07:18:01;13.05;;;1.08;;
24613;SDS011;12760;46.296;25.290;2022-09-28T07:20:29;0.55;;;0.55;;
24613;SDS011;12760;46.296;25.290;2022-09-28T07:22:58;12.18;;;3.67;;
24613;SDS011;12760;46.296;25.290;2022-09-28T07:25:25;2.25;;;2.10;;
24613;SDS011;12760;46.296;25.290;2022-09-28T07:27:54;1.65;;;1.55;;
24613;SDS011;12760;46.296;25.290;2022-09-28T07:30:21;0.60;;;0.60;;
24613;SDS011;12760;46.296;25.290;2022-09-28T07:32:47;1.98;;;1.88;;
24613;SDS011;12760;46.296;25.290;2022-09-28T07:35:13;2.50;;;1.25;;
24613;SDS011;12760;46.296;25.290;2022-09-28T07:37:39;0.68;;;0.68;;
24613;SDS011;12760;46.296;25.290;2022-09-28T07:40:05;36.75;;;5.38;;
24613;SDS011;12760;46.296;25.290;2022-09-28T07:42:51;0.73;;;0.73;;
24613;SDS011;12760;46.296;25.290;2022-09-28T07:45:17;0.60;;;0.60;;
24613;SDS011;12760;46.296;25.290;2022-09-28T07:47:45;0.50;;;0.50;;
24613;SDS011;12760;46.296;25.290;2022-09-28T07:50:11;6.38;;;2.95;;
24613;SDS011;12760;46.296;25.290;2022-09-28T07:52:37;0.98;;;0.98;;
24613;SDS011;12760;46.296;25.290;2022-09-28T07:55:03;4.07;;;3.72;;
24613;SDS011;12760;46.296;25.290;2022-09-28T07:57:29;2.17;;;2.00;;
24613;SDS011;12760;46.296;25.290;2022-09-28T07:59:58;2.05;;;1.73;;
24613;SDS011;12760;46.296;25.290;2022-09-28T08:02:26;1.13;;;1.13;;
24613;SDS011;12760;46.296;25.290;2022-09-28T08:04:52;0.93;;;0.93;;
24613;SDS011;12760;46.296;25.290;2022-09-28T08:07:17;40.00;;;5.25;;
24613;SDS011;12760;46.296;25.290;2022-09-28T08:09:43;4.03;;;1.90;;
24613;SDS011;12760;46.296;25.290;2022-09-28T08:12:10;8.65;;;3.60;;
24613;SDS011;12760;46.296;25.290;2022-09-28T08:14:37;1.15;;;1.15;;
24613;SDS011;12760;46.296;25.290;2022-09-28T08:17:03;1.73;;;1.63;;
24613;SDS011;12760;46.296;25.290;2022-09-28T08:19:30;26.73;;;3.80;;
24613;SDS011;12760;46.296;25.290;2022-09-28T08:22:15;5.85;;;3.78;;
24613;SDS011;12760;46.296;25.290;2022-09-28T08:24:42;2.05;;;1.88;;
24613;SDS011;12760;46.296;25.290;2022-09-28T08:27:09;1.10;;;1.10;;
24613;SDS011;12760;46.296;25.290;2022-09-28T08:29:35;2.28;;;2.17;;
24613;SDS011;12760;46.296;25.290;2022-09-28T08:32:01;1.02;;;1.02;;
24613;SDS011;12760;46.296;25.290;2022-09-28T08:34:32;1.45;;;1.35;;
24613;SDS011;12760;46.296;25.290;2022-09-28T08:36:59;3.63;;;0.95;;
24613;SDS011;12760;46.296;25.290;2022-09-28T08:39:25;1.77;;;1.67;;
24613;SDS011;12760;46.296;25.290;2022-09-28T08:41:58;13.00;;;6.53;;
24613;SDS011;12760;46.296;25.290;2022-09-28T08:44:30;0.93;;;0.90;;
24613;SDS011;12760;46.296;25.290;2022-09-28T08:47:05;1.08;;;0.95;;
24613;SDS011;12760;46.296;25.290;2022-09-28T08:50:00;1.75;;;1.65;;
24613;SDS011;12760;46.296;25.290;2022-09-28T08:52:31;0.30;;;0.30;;
24613;SDS011;12760;46.296;25.290;2022-09-28T08:55:09;24.75;;;3.08;;
24613;SDS011;12760;46.296;25.290;2022-09-28T08:57:45;7.32;;;2.05;;
24613;SDS011;12760;46.296;25.290;2022-09-28T09:00:20;3.72;;;2.60;;
24613;SDS011;12760;46.296;25.290;2022-09-28T09:03:13;1.95;;;1.85;;
24613;SDS011;12760;46.296;25.290;2022-09-28T09:21:44;1.95;;;1.02;;
24613;SDS011;12760;46.296;25.290;2022-09-28T09:27:11;2.33;;;2.13;;
24613;SDS011;12760;46.296;25.290;2022-09-28T09:30:04;7.32;;;6.40;;
24613;SDS011;12760;46.296;25.290;2022-09-28T09:41:22;0.47;;;0.47;;
24613;SDS011;12760;46.296;25.290;2022-09-28T09:52:21;0.50;;;0.50;;
24613;SDS011;12760;46.296;25.290;2022-09-28T09:54:57;0.40;;;0.40;;
24613;SDS011;12760;46.296;25.290;2022-09-28T09:57:40;0.70;;;0.70;;
24613;SDS011;12760;46.296;25.290;2022-09-28T10:00:11;3.95;;;2.35;;
24613;SDS011;12760;46.296;25.290;2022-09-28T10:02:39;0.50;;;0.50;;
24613;SDS011;12760;46.296;25.290;2022-09-28T10:07:55;0.20;;;0.20;;
24613;SDS011;12760;46.296;25.290;2022-09-28T10:10:33;0.50;;;0.50;;
24613;SDS011;12760;46.296;25.290;2022-09-28T10:13:07;1.65;;;1.15;;
24613;SDS011;12760;46.296;25.290;2022-09-28T10:15:33;0.40;;;0.40;;
24613;SDS011;12760;46.296;25.290;2022-09-28T10:18:01;12.10;;;0.60;;
24613;SDS011;12760;46.296;25.290;2022-09-28T10:20:32;2.35;;;0.73;;
24613;SDS011;12760;46.296;25.290;2022-09-28T10:22:59;0.20;;;0.20;;
24613;SDS011;12760;46.296;25.290;2022-09-28T10:25:29;1.48;;;1.38;;
24613;SDS011;12760;46.296;25.290;2022-09-28T10:27:58;0.80;;;0.73;;
24613;SDS011;12760;46.296;25.290;2022-09-28T10:30:27;0.68;;;0.68;;
24613;SDS011;12760;46.296;25.290;2022-09-28T10:32:53;1.80;;;1.45;;
24613;SDS011;12760;46.296;25.290;2022-09-28T10:37:53;0.43;;;0.43;;
24613;SDS011;12760;46.296;25.290;2022-09-28T10:41:07;0.30;;;0.30;;
24613;SDS011;12760;46.296;25.290;2022-09-28T10:43:35;1.25;;;1.15;;
24613;SDS011;12760;46.296;25.290;2022-09-28T10:46:10;1.38;;;1.27;;
24613;SDS011;12760;46.296;25.290;2022-09-28T10:48:56;0.40;;;0.40;;
24613;SDS011;12760;46.296;25.290;2022-09-28T10:51:40;17.40;;;3.15;;
24613;SDS011;12760;46.296;25.290;2022-09-28T10:56:53;2.05;;;1.95;;
24613;SDS011;12760;46.296;25.290;2022-09-28T10:59:24;0.20;;;0.20;;
24613;SDS011;12760;46.296;25.290;2022-09-28T11:02:19;0.38;;;0.38;;
24613;SDS011;12760;46.296;25.290;2022-09-28T11:04:49;0.30;;;0.30;;
24613;SDS011;12760;46.296;25.290;2022-09-28T11:07:18;1.75;;;1.15;;
24613;SDS011;12760;46.296;25.290;2022-09-28T11:09:48;0.40;;;0.40;;
24613;SDS011;12760;46.296;25.290;2022-09-28T11:12:19;13.38;;;1.13;;
24613;SDS011;12760;46.296;25.290;2022-09-28T11:14:48;0.40;;;0.40;;
24613;SDS011;12760;46.296;25.290;2022-09-28T11:17:27;3.97;;;1.90;;
24613;SDS011;12760;46.296;25.290;2022-09-28T11:23:17;0.43;;;0.43;;
24613;SDS011;12760;46.296;25.290;2022-09-28T11:25:56;0.50;;;0.50;;
24613;SDS011;12760;46.296;25.290;2022-09-28T11:28:26;10.32;;;2.53;;
24613;SDS011;12760;46.296;25.290;2022-09-28T11:30:56;0.93;;;0.88;;
24613;SDS011;12760;46.296;25.290;2022-09-28T11:33:31;0.35;;;0.35;;
24613;SDS011;12760;46.296;25.290;2022-09-28T11:55:12;3.05;;;1.52;;
24613;SDS011;12760;46.296;25.290;2022-09-28T11:57:49;1.48;;;0.82;;
24613;SDS011;12760;46.296;25.290;2022-09-28T12:00:25;2.75;;;2.38;;
24613;SDS011;12760;46.296;25.290;2022-09-28T12:03:13;1.45;;;1.35;;
24613;SDS011;12760;46.296;25.290;2022-09-28T12:05:50;0.38;;;0.38;;
24613;SDS011;12760;46.296;25.290;2022-09-28T12:08:28;0.50;;;0.50;;
24613;SDS011;12760;46.296;25.290;2022-09-28T12:11:00;12.55;;;1.48;;
24613;SDS011;12760;46.296;25.290;2022-09-28T12:13:40;0.95;;;0.95;;
24613;SDS011;12760;46.296;25.290;2022-09-28T12:19:02;2.03;;;1.92;;
24613;SDS011;12760;46.296;25.290;2022-09-28T12:24:26;1.33;;;1.23;;
24613;SDS011;12760;46.296;25.290;2022-09-28T12:27:11;2.22;;;1.40;;
24613;SDS011;12760;46.296;25.290;2022-09-28T12:29:56;0.75;;;0.75;;
24613;SDS011;12760;46.296;25.290;2022-09-28T12:32:38;0.35;;;0.35;;
24613;SDS011;12760;46.296;25.290;2022-09-28T12:35:13;2.63;;;0.80;;
24613;SDS011;12760;46.296;25.290;2022-09-28T12:37:55;1.48;;;0.60;;
24613;SDS011;12760;46.296;25.290;2022-09-28T12:43:32;0.40;;;0.40;;
24613;SDS011;12760;46.296;25.290;2022-09-28T12:46:23;0.30;;;0.30;;
24613;SDS011;12760;46.296;25.290;2022-09-28T12:57:56;0.30;;;0.30;;
24613;SDS011;12760;46.296;25.290;2022-09-28T13:00:28;0.45;;;0.45;;
24613;SDS011;12760;46.296;25.290;2022-09-28T13:06:02;1.52;;;1.38;;
24613;SDS011;12760;46.296;25.290;2022-09-28T13:23:26;2.53;;;1.67;;
24613;SDS011;12760;46.296;25.290;2022-09-28T13:28:52;12.70;;;1.35;;
24613;SDS011;12760;46.296;25.290;2022-09-28T13:31:25;0.28;;;0.28;;
24613;SDS011;12760;46.296;25.290;2022-09-28T13:33:56;0.60;;;0.60;;
24613;SDS011;12760;46.296;25.290;2022-09-28T13:38:53;5.88;;;1.15;;
24613;SDS011;12760;46.296;25.290;2022-09-28T13:41:21;1.50;;;1.42;;
24613;SDS011;12760;46.296;25.290;2022-09-28T13:44:31;0.50;;;0.50;;
24613;SDS011;12760;46.296;25.290;2022-09-28T13:57:40;5.35;;;1.52;;
24613;SDS011;12760;46.296;25.290;2022-09-28T14:00:24;0.57;;;0.57;;
24613;SDS011;12760;46.296;25.290;2022-09-28T14:03:27;1.42;;;1.33;;
24613;SDS011;12760;46.296;25.290;2022-09-28T14:13:58;0.45;;;0.45;;
24613;SDS011;12760;46.296;25.290;2022-09-28T14:16:26;3.70;;;0.50;;
24613;SDS011;12760;46.296;25.290;2022-09-28T14:19:16;5.25;;;1.95;;
24613;SDS011;12760;46.296;25.290;2022-09-28T14:32:35;0.40;;;0.40;;
24613;SDS011;12760;46.296;25.290;2022-09-28T14:35:06;0.47;;;0.47;;
24613;SDS011;12760;46.296;25.290;2022-09-28T14:37:57;0.40;;;0.40;;
24613;SDS011;12760;46.296;25.290;2022-09-28T14:44:01;0.30;;;0.30;;
24613;SDS011;12760;46.296;25.290;2022-09-28T14:46:28;1.35;;;1.27;;
24613;SDS011;12760;46.296;25.290;2022-09-28T14:48:55;0.32;;;0.32;;
24613;SDS011;12760;46.296;25.290;2022-09-28T14:53:52;1.48;;;1.38;;
24613;SDS011;12760;46.296;25.290;2022-09-28T14:56:19;0.30;;;0.30;;
24613;SDS011;12760;46.296;25.290;2022-09-28T14:58:46;0.30;;;0.30;;
24613;SDS011;12760;46.296;25.290;2022-09-28T15:01:19;0.82;;;0.82;;
24613;SDS011;12760;46.296;25.290;2022-09-28T15:03:50;0.93;;;0.55;;
24613;SDS011;12760;46.296;25.290;2022-09-28T15:06:21;0.77;;;0.75;;
24613;SDS011;12760;46.296;25.290;2022-09-28T15:08:47;0.30;;;0.30;;
24613;SDS011;12760;46.296;25.290;2022-09-28T15:11:14;1.40;;;0.73;;
24613;SDS011;12760;46.296;25.290;2022-09-28T15:13:47;0.30;;;0.30;;
24613;SDS011;12760;46.296;25.290;2022-09-28T15:16:17;0.40;;;0.40;;
24613;SDS011;12760;46.296;25.290;2022-09-28T15:21:36;0.40;;;0.40;;
24613;SDS011;12760;46.296;25.290;2022-09-28T15:26:49;0.63;;;0.63;;
24613;SDS011;12760;46.296;25.290;2022-09-28T15:29:16;0.57;;;0.57;;
24613;SDS011;12760;46.296;25.290;2022-09-28T15:31:43;14.63;;;2.78;;
24613;SDS011;12760;46.296;25.290;2022-09-28T15:37:15;0.50;;;0.50;;
24613;SDS011;12760;46.296;25.290;2022-09-28T15:39:45;0.80;;;0.80;;
24613;SDS011;12760;46.296;25.290;2022-09-28T15:42:16;3.17;;;1.50;;
24613;SDS011;12760;46.296;25.290;2022-09-28T15:44:57;1.88;;;1.77;;
24613;SDS011;12760;46.296;25.290;2022-09-28T15:47:26;0.60;;;0.60;;
24613;SDS011;12760;46.296;25.290;2022-09-28T15:50:35;1.30;;;1.30;;
24613;SDS011;12760;46.296;25.290;2022-09-28T15:55:27;15.10;;;3.08;;
24613;SDS011;12760;46.296;25.290;2022-09-28T15:58:04;1.73;;;1.63;;
24613;SDS011;12760;46.296;25.290;2022-09-28T16:00:36;0.73;;;0.73;;
24613;SDS011;12760;46.296;25.290;2022-09-28T16:08:19;42.88;;;5.32;;
24613;SDS011;12760;46.296;25.290;2022-09-28T16:10:54;3.85;;;2.50;;
24613;SDS011;12760;46.296;25.290;2022-09-28T16:13:30;4.43;;;2.92;;
24613;SDS011;12760;46.296;25.290;2022-09-28T16:15:56;2.08;;;1.98;;
24613;SDS011;12760;46.296;25.290;2022-09-28T16:18:24;1.15;;;1.15;;
24613;SDS011;12760;46.296;25.290;2022-09-28T16:20:52;1.70;;;1.70;;
24613;SDS011;12760;46.296;25.290;2022-09-28T16:23:24;1.95;;;1.27;;
24613;SDS011;12760;46.296;25.290;2022-09-28T16:28:26;1.70;;;1.63;;
24613;SDS011;12760;46.296;25.290;2022-09-28T16:33:42;4.05;;;3.75;;
24613;SDS011;12760;46.296;25.290;2022-09-28T16:36:13;4.15;;;3.75;;
24613;SDS011;12760;46.296;25.290;2022-09-28T16:38:44;2.13;;;2.03;;
24613;SDS011;12760;46.296;25.290;2022-09-28T16:41:11;2.58;;;2.47;;
24613;SDS011;12760;46.296;25.290;2022-09-28T16:43:38;4.10;;;3.72;;
24613;SDS011;12760;46.296;25.290;2022-09-28T16:46:07;3.17;;;2.97;;
24613;SDS011;12760;46.296;25.290;2022-09-28T16:48:37;2.97;;;2.72;;
24613;SDS011;12760;46.296;25.290;2022-09-28T16:51:21;1.90;;;1.80;;
24613;SDS011;12760;46.296;25.290;2022-09-28T16:53:47;2.28;;;2.13;;
24613;SDS011;12760;46.296;25.290;2022-09-28T16:56:32;1.55;;;1.48;;
24613;SDS011;12760;46.296;25.290;2022-09-28T16:58:58;11.90;;;7.43;;
24613;SDS011;12760;46.296;25.290;2022-09-28T17:01:26;4.68;;;3.17;;
24613;SDS011;12760;46.296;25.290;2022-09-28T17:03:54;4.00;;;2.45;;
24613;SDS011;12760;46.296;25.290;2022-09-28T17:06:20;3.55;;;3.35;;
24613;SDS011;12760;46.296;25.290;2022-09-28T17:08:49;4.68;;;3.72;;
24613;SDS011;12760;46.296;25.290;2022-09-28T17:11:17;38.80;;;3.85;;
24613;SDS011;12760;46.296;25.290;2022-09-28T17:13:44;4.93;;;4.18;;
24613;SDS011;12760;46.296;25.290;2022-09-28T17:16:12;5.80;;;5.28;;
24613;SDS011;12760;46.296;25.290;2022-09-28T17:18:41;2.35;;;2.10;;
24613;SDS011;12760;46.296;25.290;2022-09-28T17:21:10;1.85;;;1.75;;
24613;SDS011;12760;46.296;25.290;2022-09-28T17:23:41;10.45;;;4.28;;
24613;SDS011;12760;46.296;25.290;2022-09-28T17:26:12;4.93;;;3.85;;
24613;SDS011;12760;46.296;25.290;2022-09-28T17:28:50;11.32;;;5.57;;
24613;SDS011;12760;46.296;25.290;2022-09-28T17:31:16;2.47;;;2.33;;
24613;SDS011;12760;46.296;25.290;2022-09-28T17:33:42;14.75;;;3.30;;
24613;SDS011;12760;46.296;25.290;2022-09-28T17:36:08;2.65;;;2.47;;
24613;SDS011;12760;46.296;25.290;2022-09-28T17:38:39;6.07;;;5.05;;
24613;SDS011;12760;46.296;25.290;2022-09-28T17:41:08;13.75;;;7.15;;
24613;SDS011;12760;46.296;25.290;2022-09-28T17:43:38;8.00;;;5.45;;
24613;SDS011;12760;46.296;25.290;2022-09-28T17:46:06;5.90;;;5.43;;
24613;SDS011;12760;46.296;25.290;2022-09-28T17:48:44;3.25;;;3.00;;
24613;SDS011;12760;46.296;25.290;2022-09-28T17:51:12;5.97;;;5.53;;
24613;SDS011;12760;46.296;25.290;2022-09-28T17:53:38;4.20;;;3.80;;
24613;SDS011;12760;46.296;25.290;2022-09-28T17:56:04;9.02;;;4.88;;
24613;SDS011;12760;46.296;25.290;2022-09-28T17:58:30;12.45;;;5.57;;
24613;SDS011;12760;46.296;25.290;2022-09-28T18:00:56;4.10;;;3.80;;
24613;SDS011;12760;46.296;25.290;2022-09-28T18:03:23;5.38;;;4.97;;
24613;SDS011;12760;46.296;25.290;2022-09-28T18:05:51;2.95;;;2.72;;
24613;SDS011;12760;46.296;25.290;2022-09-28T18:08:24;1.35;;;1.35;;
24613;SDS011;12760;46.296;25.290;2022-09-28T18:10:50;5.18;;;2.42;;
24613;SDS011;12760;46.296;25.290;2022-09-28T18:13:16;2.55;;;2.38;;
24613;SDS011;12760;46.296;25.290;2022-09-28T18:15:41;2.25;;;2.15;;
24613;SDS011;12760;46.296;25.290;2022-09-28T18:18:07;7.03;;;2.78;;
24613;SDS011;12760;46.296;25.290;2022-09-28T18:20:34;4.65;;;2.83;;
24613;SDS011;12760;46.296;25.290;2022-09-28T18:23:00;4.05;;;3.05;;
24613;SDS011;12760;46.296;25.290;2022-09-28T18:25:26;0.80;;;0.80;;
24613;SDS011;12760;46.296;25.290;2022-09-28T18:27:53;1.80;;;1.70;;